createdAt,value
2019-05-05T00:00:24.797Z,1.75
2019-05-05T00:01:10.918Z,1.75
2019-05-05T00:02:06.483Z,1.90
2019-05-05T00:03:04.298Z,1.57
2019-05-05T00:03:48.938Z,1.95
2019-05-05T00:05:01.182Z,2.20
2019-05-05T00:05:39.678Z,1.65
2019-05-05T00:06:17.265Z,1.57
2019-05-05T00:06:55.081Z,1.60
2019-05-05T00:07:34.785Z,1.40
2019-05-05T00:08:15.199Z,1.80
2019-05-05T00:08:54.649Z,1.57
2019-05-05T00:09:31.327Z,1.87
2019-05-05T00:10:12.170Z,1.65
2019-05-05T00:10:58.975Z,2.12
2019-05-05T00:11:54.696Z,2.35
2019-05-05T00:12:52.028Z,1.75
2019-05-05T00:13:55.152Z,1.52
2019-05-05T00:14:44.273Z,1.80
2019-05-05T00:15:36.274Z,1.80
2019-05-05T00:16:35.069Z,1.60
2019-05-05T00:17:18.669Z,1.57
2019-05-05T00:17:56.261Z,2.10
2019-05-05T00:18:35.655Z,1.98
2019-05-05T00:19:28.795Z,2.00
2019-05-05T00:19:54.957Z,1.98
2019-05-05T00:20:34.403Z,1.72
2019-05-05T00:21:11.853Z,2.02
2019-05-05T00:21:49.655Z,1.80
2019-05-05T00:22:32.455Z,2.08
2019-05-05T00:23:10.420Z,2.05
2019-05-05T00:23:47.954Z,1.80
2019-05-05T00:24:26.170Z,1.70
2019-05-05T00:25:05.040Z,1.65
2019-05-05T00:25:44.707Z,1.90
2019-05-05T00:26:24.370Z,1.92
2019-05-05T00:27:04.309Z,1.82
2019-05-05T00:27:41.682Z,1.37
2019-05-05T00:28:19.261Z,1.95
2019-05-05T00:28:57.000Z,1.50
2019-05-05T00:29:37.076Z,1.85
2019-05-05T00:30:17.279Z,1.70
2019-05-05T00:30:55.566Z,1.72
2019-05-05T00:31:34.904Z,2.00
2019-05-05T00:32:12.115Z,1.77
2019-05-05T00:32:49.550Z,1.77
2019-05-05T00:33:27.307Z,1.85
2019-05-05T00:34:05.131Z,1.70
2019-05-05T00:34:45.168Z,1.60
2019-05-05T00:35:25.116Z,2.00
2019-05-05T00:36:04.806Z,2.20
2019-05-05T00:36:40.824Z,2.22
2019-05-05T00:37:18.883Z,1.90
2019-05-05T00:37:56.754Z,1.70
2019-05-05T00:38:35.320Z,2.05
2019-05-05T00:39:14.918Z,1.80
2019-05-05T00:39:55.329Z,2.20
2019-05-05T00:40:35.050Z,2.47
2019-05-05T00:41:14.987Z,2.35
2019-05-05T00:41:56.263Z,2.02
2019-05-05T00:42:35.249Z,2.17
2019-05-05T00:43:15.095Z,1.72
2019-05-05T00:43:55.532Z,1.92
2019-05-05T00:44:35.239Z,1.85
2019-05-05T00:45:14.714Z,2.55
2019-05-05T00:45:53.016Z,1.92
2019-05-05T00:46:57.981Z,2.15
2019-05-05T00:47:44.947Z,1.92
2019-05-05T00:48:35.050Z,1.85
2019-05-05T00:49:14.403Z,1.80
2019-05-05T00:49:59.928Z,2.10
2019-05-05T00:50:38.045Z,1.80
2019-05-05T00:51:15.960Z,1.87
2019-05-05T00:51:54.672Z,2.10
2019-05-05T00:52:32.488Z,1.95
2019-05-05T00:53:10.626Z,2.00
2019-05-05T00:53:47.450Z,1.80
2019-05-05T00:54:25.116Z,1.80
2019-05-05T00:55:02.268Z,1.87
2019-05-05T00:55:39.950Z,1.98
2019-05-05T00:56:16.814Z,1.70
2019-05-05T00:56:54.579Z,2.10
2019-05-05T00:57:32.358Z,2.12
2019-05-05T00:58:14.201Z,1.60
2019-05-05T00:58:56.946Z,1.70
2019-05-05T00:59:34.935Z,1.75
2019-05-05T01:00:19.810Z,1.82
2019-05-05T01:01:22.193Z,2.12
2019-05-05T01:02:14.960Z,2.20
2019-05-05T01:02:54.214Z,1.85
2019-05-05T01:03:34.764Z,2.15
2019-05-05T01:04:14.516Z,1.62
2019-05-05T01:04:58.078Z,1.95
2019-05-05T01:05:52.510Z,2.10
2019-05-05T01:06:32.014Z,1.65
2019-05-05T01:07:09.792Z,2.00
2019-05-05T01:07:47.810Z,2.00
2019-05-05T01:08:27.766Z,1.95
2019-05-05T01:09:08.220Z,2.20
2019-05-05T01:09:46.474Z,2.10
2019-05-05T01:10:35.239Z,1.80
2019-05-05T01:11:14.473Z,1.77
2019-05-05T01:11:52.140Z,2.20
2019-05-05T01:12:29.288Z,1.77
2019-05-05T01:13:06.868Z,2.35
2019-05-05T01:13:45.546Z,1.87
2019-05-05T01:14:24.997Z,2.40
2019-05-05T01:15:04.629Z,2.15
2019-05-05T01:15:44.833Z,2.20
2019-05-05T01:16:24.566Z,2.08
2019-05-05T01:17:02.075Z,2.05
2019-05-05T01:17:41.069Z,2.60
2019-05-05T01:18:18.573Z,2.20
2019-05-05T01:18:56.147Z,2.42
2019-05-05T01:19:34.990Z,2.33
2019-05-05T01:20:14.618Z,2.40
2019-05-05T01:20:51.866Z,2.58
2019-05-05T01:21:29.851Z,2.50
2019-05-05T01:22:08.878Z,2.12
2019-05-05T01:22:45.942Z,2.35
2019-05-05T01:23:25.158Z,2.22
2019-05-05T01:24:02.638Z,2.52
2019-05-05T01:24:40.020Z,2.65
2019-05-05T01:25:17.628Z,2.50
2019-05-05T01:25:55.516Z,2.67
2019-05-05T01:26:35.295Z,2.58
2019-05-05T01:27:14.620Z,2.70
2019-05-05T01:27:51.850Z,2.70
2019-05-05T01:28:28.928Z,2.50
2019-05-05T01:29:08.680Z,2.65
2019-05-05T01:29:46.810Z,2.47
2019-05-05T01:30:28.142Z,2.47
2019-05-05T01:31:09.761Z,3.20
2019-05-05T01:31:47.526Z,3.30
2019-05-05T01:32:29.375Z,2.85
2019-05-05T01:33:14.570Z,2.33
2019-05-05T01:34:15.322Z,3.10
2019-05-05T01:34:54.768Z,2.70
2019-05-05T01:35:34.020Z,2.83
2019-05-05T01:36:11.616Z,2.60
2019-05-05T01:36:54.358Z,2.75
2019-05-05T01:37:50.912Z,2.25
2019-05-05T01:38:36.214Z,2.60
2019-05-05T01:39:31.718Z,2.30
2019-05-05T01:40:19.236Z,2.30
2019-05-05T01:41:04.516Z,2.27
2019-05-05T01:41:47.146Z,2.60
2019-05-05T01:42:25.194Z,2.17
2019-05-05T01:43:05.334Z,2.10
2019-05-05T01:43:42.134Z,2.40
2019-05-05T01:44:20.023Z,2.12
2019-05-05T01:44:58.046Z,2.17
2019-05-05T01:45:35.720Z,2.42
2019-05-05T01:46:14.356Z,1.85
2019-05-05T01:46:52.594Z,2.42
2019-05-05T01:47:30.380Z,2.30
2019-05-05T01:48:07.126Z,2.75
2019-05-05T01:48:44.630Z,2.85
2019-05-05T01:49:25.335Z,2.80
2019-05-05T01:50:16.743Z,2.67
2019-05-05T01:50:45.310Z,2.40
2019-05-05T01:51:24.593Z,2.90
2019-05-05T01:52:04.503Z,2.60
2019-05-05T01:52:41.984Z,2.45
2019-05-05T01:53:19.944Z,2.92
2019-05-05T01:53:57.815Z,2.80
2019-05-05T01:54:36.842Z,2.77
2019-05-05T01:55:14.735Z,3.00
2019-05-05T01:55:55.085Z,2.55
2019-05-05T01:56:35.118Z,2.83
2019-05-05T01:57:14.597Z,2.90
2019-05-05T01:57:54.228Z,2.40
2019-05-05T01:58:32.424Z,2.95
2019-05-05T01:59:10.270Z,2.72
2019-05-05T01:59:47.672Z,3.52
2019-05-05T02:00:25.523Z,2.80
2019-05-05T02:01:04.944Z,3.00
2019-05-05T02:01:44.395Z,3.05
2019-05-05T02:02:21.950Z,3.00
2019-05-05T02:02:59.775Z,2.87
2019-05-05T02:03:36.972Z,2.80
2019-05-05T02:04:15.242Z,3.20
2019-05-05T02:04:55.348Z,4.22
2019-05-05T02:05:34.842Z,5.03
2019-05-05T02:06:14.720Z,6.65
2019-05-05T02:06:52.320Z,8.58
2019-05-05T02:07:30.190Z,9.00
2019-05-05T02:08:10.126Z,9.18
2019-05-05T02:08:48.442Z,9.48
2019-05-05T02:09:25.698Z,10.80
2019-05-05T02:10:06.019Z,10.25
2019-05-05T02:10:45.186Z,11.60
2019-05-05T02:11:24.718Z,9.13
2019-05-05T02:12:04.984Z,9.08
2019-05-05T02:12:44.579Z,9.43
2019-05-05T02:13:22.244Z,9.28
2019-05-05T02:14:02.489Z,8.00
2019-05-05T02:14:44.421Z,7.10
2019-05-05T02:15:22.256Z,7.25
2019-05-05T02:16:00.171Z,6.08
2019-05-05T02:16:38.282Z,5.08
2019-05-05T02:17:18.346Z,5.45
2019-05-05T02:17:55.842Z,4.92
2019-05-05T02:18:34.559Z,5.15
2019-05-05T02:19:14.188Z,4.20
2019-05-05T02:19:52.196Z,4.00
2019-05-05T02:21:04.993Z,4.50
2019-05-05T02:21:42.688Z,3.20
2019-05-05T02:22:20.902Z,3.50
2019-05-05T02:22:58.450Z,3.40
2019-05-05T02:23:37.465Z,3.10
2019-05-05T02:24:14.937Z,3.02
2019-05-05T02:24:52.561Z,3.30
2019-05-05T02:25:31.642Z,3.05
2019-05-05T02:26:09.004Z,3.62
2019-05-05T02:26:46.589Z,3.50
2019-05-05T02:27:25.433Z,2.90
2019-05-05T02:28:04.455Z,3.02
2019-05-05T02:28:48.633Z,2.85
2019-05-05T02:29:30.938Z,3.05
2019-05-05T02:30:35.760Z,2.90
2019-05-05T02:31:18.291Z,3.72
2019-05-05T02:32:15.615Z,3.55
2019-05-05T02:32:59.018Z,2.83
2019-05-05T02:33:36.804Z,4.20
2019-05-05T02:34:16.439Z,3.47
2019-05-05T02:34:56.793Z,4.42
2019-05-05T02:35:35.405Z,3.85
2019-05-05T02:36:15.770Z,3.72
2019-05-05T02:36:52.433Z,3.50
2019-05-05T02:37:37.120Z,4.17
2019-05-05T02:38:15.829Z,3.55
2019-05-05T02:38:56.469Z,3.72
2019-05-05T02:39:35.206Z,4.25
2019-05-05T02:40:15.694Z,3.67
2019-05-05T02:40:54.883Z,3.30
2019-05-05T02:41:34.836Z,3.83
2019-05-05T02:42:14.648Z,3.70
2019-05-05T02:42:54.898Z,3.90
2019-05-05T02:43:34.449Z,3.62
2019-05-05T02:44:15.194Z,3.60
2019-05-05T02:44:54.264Z,3.90
2019-05-05T02:45:49.721Z,3.37
2019-05-05T02:46:35.692Z,2.67
2019-05-05T02:47:26.416Z,3.85
2019-05-05T02:48:16.835Z,3.60
2019-05-05T02:48:56.849Z,2.65
2019-05-05T02:49:35.270Z,2.70
2019-05-05T02:50:15.469Z,2.62
2019-05-05T02:51:00.151Z,3.35
2019-05-05T02:51:35.798Z,2.67
2019-05-05T02:52:15.245Z,2.95
2019-05-05T02:52:53.545Z,2.95
2019-05-05T02:53:38.178Z,3.58
2019-05-05T02:54:16.393Z,3.00
2019-05-05T02:54:57.337Z,2.37
2019-05-05T02:55:35.965Z,2.75
2019-05-05T02:56:19.765Z,2.60
2019-05-05T02:56:57.838Z,2.42
2019-05-05T02:57:36.226Z,2.20
2019-05-05T02:58:14.034Z,2.70
2019-05-05T02:58:54.540Z,2.25
2019-05-05T03:00:01.016Z,2.60
2019-05-05T03:00:55.764Z,2.47
2019-05-05T03:01:44.611Z,2.30
2019-05-05T03:02:25.012Z,2.10
2019-05-05T03:03:04.424Z,2.65
2019-05-05T03:03:43.819Z,2.20
2019-05-05T03:04:24.429Z,2.27
2019-05-05T03:05:04.203Z,2.27
2019-05-05T03:05:43.486Z,1.80
2019-05-05T03:06:20.962Z,2.20
2019-05-05T03:07:01.566Z,2.50
2019-05-05T03:07:39.777Z,2.00
2019-05-05T03:08:17.958Z,2.50
2019-05-05T03:08:57.531Z,2.70
2019-05-05T03:09:36.168Z,2.37
2019-05-05T03:10:14.202Z,2.65
2019-05-05T03:10:53.592Z,2.37
2019-05-05T03:11:34.408Z,2.20
2019-05-05T03:12:14.916Z,2.45
2019-05-05T03:12:54.410Z,2.00
2019-05-05T03:13:33.728Z,2.58
2019-05-05T03:14:14.310Z,2.55
2019-05-05T03:14:56.818Z,2.90
2019-05-05T03:16:15.831Z,2.25
2019-05-05T03:16:54.214Z,2.20
2019-05-05T03:17:34.497Z,2.67
2019-05-05T03:18:15.456Z,2.52
2019-05-05T03:18:54.492Z,2.17
2019-05-05T03:19:53.396Z,2.35
2019-05-05T03:20:29.938Z,2.60
2019-05-05T03:21:08.078Z,2.50
2019-05-05T03:21:45.747Z,1.90
2019-05-05T03:22:23.803Z,2.35
2019-05-05T03:23:01.632Z,2.20
2019-05-05T03:23:39.857Z,2.10
2019-05-05T03:24:17.325Z,2.40
2019-05-05T03:24:55.488Z,2.80
2019-05-05T03:25:33.458Z,2.52
2019-05-05T03:26:14.484Z,2.90
2019-05-05T03:26:53.712Z,2.50
2019-05-05T03:27:34.017Z,2.40
2019-05-05T03:28:13.611Z,2.17
2019-05-05T03:28:56.232Z,2.50
2019-05-05T03:29:33.814Z,2.65
2019-05-05T03:30:15.445Z,2.65
2019-05-05T03:30:55.651Z,2.50
2019-05-05T03:31:35.212Z,2.80
2019-05-05T03:32:15.951Z,2.72
2019-05-05T03:32:51.041Z,2.30
2019-05-05T03:33:28.927Z,2.62
2019-05-05T03:34:08.668Z,2.50
2019-05-05T03:34:46.517Z,2.70
2019-05-05T03:35:24.231Z,2.45
2019-05-05T03:36:03.526Z,2.10
2019-05-05T03:36:44.087Z,2.27
2019-05-05T03:37:22.061Z,2.30
2019-05-05T03:37:59.480Z,2.40
2019-05-05T03:38:37.912Z,2.30
2019-05-05T03:39:23.593Z,2.22
2019-05-05T03:40:17.724Z,2.83
2019-05-05T03:40:57.149Z,2.27
2019-05-05T03:41:43.857Z,2.50
2019-05-05T03:42:27.084Z,2.50
2019-05-05T03:43:08.869Z,2.83
2019-05-05T03:44:09.340Z,2.17
2019-05-05T03:44:55.297Z,2.75
2019-05-05T03:45:53.849Z,2.92
2019-05-05T03:46:31.656Z,2.55
2019-05-05T03:47:09.916Z,2.70
2019-05-05T03:47:47.989Z,2.70
2019-05-05T03:48:25.696Z,2.85
2019-05-05T03:49:04.778Z,2.55
2019-05-05T03:49:44.198Z,2.70
2019-05-05T03:50:23.749Z,2.50
2019-05-05T03:51:17.450Z,3.20
2019-05-05T03:51:40.945Z,2.72
2019-05-05T03:52:18.942Z,3.20
2019-05-05T03:52:57.032Z,3.05
2019-05-05T03:53:35.329Z,3.10
2019-05-05T03:54:14.632Z,2.67
2019-05-05T03:54:54.217Z,3.12
2019-05-05T03:55:31.754Z,2.80
2019-05-05T03:56:13.958Z,2.67
2019-05-05T03:57:08.112Z,2.60
2019-05-05T03:57:45.724Z,2.90
2019-05-05T03:58:24.143Z,3.30
2019-05-05T03:59:04.695Z,2.65
2019-05-05T03:59:44.354Z,2.75
2019-05-05T04:00:57.897Z,2.80
2019-05-05T04:01:46.555Z,2.50
2019-05-05T04:02:41.632Z,2.85
2019-05-05T04:03:19.660Z,2.60
2019-05-05T04:04:16.341Z,2.75
2019-05-05T04:04:55.091Z,2.17
2019-05-05T04:05:39.670Z,2.35
2019-05-05T04:06:20.244Z,2.70
2019-05-05T04:06:57.992Z,2.02
2019-05-05T04:07:35.945Z,2.37
2019-05-05T04:08:14.483Z,2.05
2019-05-05T04:08:53.801Z,2.20
2019-05-05T04:09:31.678Z,2.33
2019-05-05T04:10:09.453Z,2.52
2019-05-05T04:10:47.545Z,2.72
2019-05-05T04:11:24.779Z,2.50
2019-05-05T04:12:04.285Z,2.83
2019-05-05T04:12:43.529Z,2.33
2019-05-05T04:13:21.129Z,2.20
2019-05-05T04:13:58.922Z,2.50
2019-05-05T04:14:36.372Z,2.45
2019-05-05T04:15:14.246Z,2.47
2019-05-05T04:16:17.563Z,2.25
2019-05-05T04:17:24.470Z,2.65
2019-05-05T04:18:10.030Z,1.80
2019-05-05T04:18:51.248Z,2.10
2019-05-05T04:19:29.262Z,2.52
2019-05-05T04:20:25.877Z,2.47
2019-05-05T04:21:04.057Z,2.08
2019-05-05T04:21:44.739Z,2.30
2019-05-05T04:22:23.651Z,2.00
2019-05-05T04:23:00.916Z,2.20
2019-05-05T04:23:41.565Z,1.85
2019-05-05T04:24:20.974Z,2.10
2019-05-05T04:24:58.881Z,1.80
2019-05-05T04:25:36.385Z,2.30
2019-05-05T04:26:14.377Z,1.90
2019-05-05T04:26:51.858Z,2.00
2019-05-05T04:27:29.823Z,2.42
2019-05-05T04:28:07.017Z,2.12
2019-05-05T04:28:45.009Z,2.35
2019-05-05T04:29:24.272Z,1.80
2019-05-05T04:30:03.620Z,1.70
2019-05-05T04:30:40.745Z,2.07
2019-05-05T04:31:18.064Z,1.90
2019-05-05T04:31:55.885Z,2.27
2019-05-05T04:32:38.043Z,2.67
2019-05-05T04:33:15.409Z,2.40
2019-05-05T04:33:53.801Z,2.83
2019-05-05T04:34:31.128Z,2.90
2019-05-05T04:35:08.611Z,2.60
2019-05-05T04:35:46.490Z,3.47
2019-05-05T04:36:23.782Z,3.67
2019-05-05T04:37:01.340Z,3.40
2019-05-05T04:37:39.129Z,3.10
2019-05-05T04:38:16.670Z,2.87
2019-05-05T04:38:54.674Z,2.52
2019-05-05T04:39:34.216Z,2.60
2019-05-05T04:40:11.791Z,2.73
2019-05-05T04:40:49.206Z,3.13
2019-05-05T04:41:26.745Z,3.00
2019-05-05T04:42:04.829Z,2.70
2019-05-05T04:42:44.089Z,3.17
2019-05-05T04:43:21.631Z,2.40
2019-05-05T04:43:58.707Z,2.60
2019-05-05T04:44:38.326Z,3.10
2019-05-05T04:45:16.665Z,2.97
2019-05-05T04:45:54.672Z,3.07
2019-05-05T04:46:33.720Z,3.27
2019-05-05T04:47:16.929Z,3.00
2019-05-05T04:47:57.954Z,3.20
2019-05-05T04:48:58.321Z,3.80
2019-05-05T04:49:44.523Z,2.80
2019-05-05T04:50:44.518Z,2.98
2019-05-05T04:51:44.824Z,4.17
2019-05-05T04:52:14.306Z,3.02
2019-05-05T04:52:54.037Z,3.30
2019-05-05T04:53:56.721Z,2.95
2019-05-05T04:54:43.901Z,3.33
2019-05-05T04:55:24.465Z,2.80
2019-05-05T04:56:04.244Z,3.02
2019-05-05T04:56:41.848Z,2.90
2019-05-05T04:57:19.168Z,2.60
2019-05-05T04:57:57.394Z,2.50
2019-05-05T04:58:35.483Z,1.95
2019-05-05T04:59:14.301Z,2.47
2019-05-05T04:59:53.943Z,2.00
2019-05-05T05:00:34.072Z,2.10
2019-05-05T05:01:11.070Z,1.80
2019-05-05T05:01:50.108Z,2.27
2019-05-05T05:02:45.738Z,1.80
2019-05-05T05:03:50.045Z,1.85
2019-05-05T05:04:46.769Z,1.60
2019-05-05T05:05:28.129Z,1.65
2019-05-05T05:06:09.101Z,2.17
2019-05-05T05:06:50.170Z,1.80
2019-05-05T05:07:27.242Z,2.20
2019-05-05T05:08:04.545Z,1.63
2019-05-05T05:08:45.345Z,1.90
2019-05-05T05:09:23.756Z,2.17
2019-05-05T05:10:01.830Z,1.73
2019-05-05T05:10:39.127Z,1.77
2019-05-05T05:11:16.954Z,1.70
2019-05-05T05:11:54.706Z,1.63
2019-05-05T05:12:33.979Z,1.70
2019-05-05T05:13:10.818Z,1.60
2019-05-05T05:13:48.273Z,1.53
2019-05-05T05:14:26.139Z,2.10
2019-05-05T05:15:04.298Z,1.90
2019-05-05T05:15:44.660Z,1.63
2019-05-05T05:16:24.581Z,1.67
2019-05-05T05:17:03.531Z,1.70
2019-05-05T05:17:46.265Z,1.80
2019-05-05T05:18:26.481Z,1.60
2019-05-05T05:19:04.342Z,1.90
2019-05-05T05:19:43.668Z,1.80
2019-05-05T05:20:21.351Z,1.53
2019-05-05T05:20:58.769Z,1.97
2019-05-05T05:21:37.701Z,1.60
2019-05-05T05:22:15.265Z,1.70
2019-05-05T05:22:54.405Z,1.60
2019-05-05T05:23:34.077Z,1.70
2019-05-05T05:24:12.081Z,1.83
2019-05-05T05:24:49.181Z,2.07
2019-05-05T05:25:26.785Z,1.90
2019-05-05T05:26:05.054Z,2.10
2019-05-05T05:26:44.160Z,2.00
2019-05-05T05:27:21.949Z,2.17
2019-05-05T05:27:59.416Z,2.30
2019-05-05T05:28:36.940Z,2.03
2019-05-05T05:29:15.222Z,2.20
2019-05-05T05:29:54.362Z,2.20
2019-05-05T05:30:34.713Z,2.23
2019-05-05T05:31:13.955Z,2.50
2019-05-05T05:31:53.451Z,2.50
2019-05-05T05:32:30.684Z,2.47
2019-05-05T05:33:10.560Z,2.37
2019-05-05T05:33:48.141Z,2.20
2019-05-05T05:34:28.433Z,2.10
2019-05-05T05:35:05.997Z,1.60
2019-05-05T05:35:44.139Z,2.33
2019-05-05T05:36:21.561Z,1.97
2019-05-05T05:36:58.853Z,2.20
2019-05-05T05:37:38.361Z,2.03
2019-05-05T05:38:15.558Z,2.23
2019-05-05T05:38:55.189Z,1.90
2019-05-05T05:39:44.032Z,2.13
2019-05-05T05:40:30.775Z,2.13
2019-05-05T05:41:15.471Z,2.00
2019-05-05T05:41:54.145Z,2.40
2019-05-05T05:42:33.528Z,2.10
2019-05-05T05:43:13.954Z,2.23
2019-05-05T05:44:16.413Z,1.80
2019-05-05T05:45:14.553Z,1.90
2019-05-05T05:46:16.633Z,1.67
2019-05-05T05:47:16.133Z,2.27
2019-05-05T05:48:06.977Z,1.90
2019-05-05T05:49:05.489Z,1.83
2019-05-05T05:49:48.179Z,2.13
2019-05-05T05:50:29.672Z,2.17
2019-05-05T05:51:09.601Z,1.97
2019-05-05T05:51:47.017Z,2.20
2019-05-05T05:52:24.385Z,2.43
2019-05-05T05:53:04.476Z,1.87
2019-05-05T05:53:41.494Z,1.90
2019-05-05T05:54:18.845Z,2.50
2019-05-05T05:54:56.023Z,2.50
2019-05-05T05:55:34.269Z,2.17
2019-05-05T05:56:13.505Z,1.90
2019-05-05T05:56:51.055Z,1.97
2019-05-05T05:57:28.178Z,2.30
2019-05-05T05:58:05.292Z,1.93
2019-05-05T05:58:44.545Z,2.07
2019-05-05T05:59:21.747Z,2.40
2019-05-05T05:59:59.141Z,2.20
2019-05-05T06:00:36.913Z,2.20
2019-05-05T06:01:14.816Z,2.03
2019-05-05T06:02:06.109Z,2.50
2019-05-05T06:02:33.480Z,2.30
2019-05-05T06:03:11.051Z,2.23
2019-05-05T06:03:48.977Z,2.67
2019-05-05T06:04:26.773Z,2.50
2019-05-05T06:05:07.303Z,2.43
2019-05-05T06:05:44.650Z,2.20
2019-05-05T06:06:24.861Z,2.30
2019-05-05T06:07:04.143Z,2.53
2019-05-05T06:07:41.350Z,2.70
2019-05-05T06:08:18.537Z,2.43
2019-05-05T06:08:56.337Z,2.40
2019-05-05T06:09:34.601Z,2.40
2019-05-05T06:10:22.207Z,2.50
2019-05-05T06:10:54.714Z,3.00
2019-05-05T06:11:32.019Z,2.47
2019-05-05T06:12:08.844Z,2.43
2019-05-05T06:12:45.632Z,2.70
2019-05-05T06:13:24.183Z,2.20
2019-05-05T06:14:03.831Z,2.70
2019-05-05T06:14:40.701Z,2.77
2019-05-05T06:15:18.575Z,3.00
2019-05-05T06:15:56.930Z,2.73
2019-05-05T06:16:34.706Z,3.67
2019-05-05T06:17:13.491Z,2.40
2019-05-05T06:17:50.669Z,2.60
2019-05-05T06:18:28.446Z,2.27
2019-05-05T06:19:05.941Z,2.40
2019-05-05T06:19:44.625Z,2.67
2019-05-05T06:20:23.711Z,3.00
2019-05-05T06:21:04.285Z,3.20
2019-05-05T06:21:41.099Z,2.60
2019-05-05T06:22:28.481Z,3.00
2019-05-05T06:22:57.282Z,2.70
2019-05-05T06:23:37.569Z,3.13
2019-05-05T06:24:14.436Z,2.63
2019-05-05T06:24:54.176Z,2.90
2019-05-05T06:25:34.004Z,3.40
2019-05-05T06:26:10.600Z,2.97
2019-05-05T06:26:47.493Z,2.53
2019-05-05T06:27:24.771Z,3.17
2019-05-05T06:28:01.228Z,3.30
2019-05-05T06:28:38.735Z,2.83
2019-05-05T06:29:16.466Z,2.97
2019-05-05T06:29:54.295Z,3.00
2019-05-05T06:30:33.744Z,3.50
2019-05-05T06:31:13.881Z,2.95
2019-05-05T06:31:51.272Z,2.60
2019-05-05T06:32:29.354Z,3.08
2019-05-05T06:33:06.425Z,3.07
2019-05-05T06:33:44.103Z,3.50
2019-05-05T06:34:24.398Z,3.05
2019-05-05T06:35:04.833Z,2.60
2019-05-05T06:35:44.218Z,2.70
2019-05-05T06:36:23.336Z,3.10
2019-05-05T06:37:04.331Z,3.17
2019-05-05T06:37:54.290Z,2.67
2019-05-05T06:38:34.343Z,2.77
2019-05-05T06:39:13.706Z,3.17
2019-05-05T06:39:54.409Z,3.00
2019-05-05T06:40:54.039Z,2.90
2019-05-05T06:41:36.970Z,3.20
2019-05-05T06:42:26.455Z,2.90
2019-05-05T06:43:16.713Z,3.35
2019-05-05T06:44:19.084Z,2.95
2019-05-05T06:45:01.374Z,2.95
2019-05-05T06:45:44.627Z,3.10
2019-05-05T06:46:24.621Z,3.22
2019-05-05T06:47:24.110Z,2.85
2019-05-05T06:48:04.210Z,2.70
2019-05-05T06:48:43.731Z,3.20
2019-05-05T06:49:21.294Z,3.20
2019-05-05T06:49:58.740Z,3.02
2019-05-05T06:50:36.481Z,3.85
2019-05-05T06:51:14.507Z,3.20
2019-05-05T06:51:52.021Z,3.08
2019-05-05T06:52:40.912Z,2.90
2019-05-05T06:53:11.172Z,3.00
2019-05-05T06:53:49.739Z,2.75
2019-05-05T06:54:27.250Z,3.00
2019-05-05T06:55:05.863Z,3.70
2019-05-05T06:55:44.477Z,3.30
2019-05-05T06:56:23.789Z,3.50
2019-05-05T06:57:01.542Z,3.27
2019-05-05T06:57:39.090Z,3.08
2019-05-05T06:58:16.849Z,2.72
2019-05-05T06:58:59.327Z,3.02
2019-05-05T06:59:38.610Z,3.08
2019-05-05T07:00:17.142Z,2.98
2019-05-05T07:00:54.622Z,3.05
2019-05-05T07:01:33.770Z,3.30
2019-05-05T07:02:14.496Z,2.70
2019-05-05T07:02:50.682Z,3.80
2019-05-05T07:03:27.923Z,3.20
2019-05-05T07:04:05.719Z,2.98
2019-05-05T07:04:44.478Z,3.22
2019-05-05T07:05:23.533Z,3.00
2019-05-05T07:06:00.956Z,2.58
2019-05-05T07:06:53.168Z,3.00
2019-05-05T07:07:18.782Z,3.10
2019-05-05T07:07:55.896Z,3.10
2019-05-05T07:08:34.719Z,2.70
2019-05-05T07:09:13.889Z,2.90
2019-05-05T07:09:54.322Z,2.40
2019-05-05T07:10:33.712Z,3.00
2019-05-05T07:11:11.125Z,2.72
2019-05-05T07:11:48.674Z,3.30
2019-05-05T07:12:26.198Z,2.70
2019-05-05T07:13:04.964Z,3.20
2019-05-05T07:13:44.316Z,3.15
2019-05-05T07:14:23.598Z,2.95
2019-05-05T07:15:01.070Z,3.20
2019-05-05T07:15:38.375Z,3.47
2019-05-05T07:16:16.214Z,2.70
2019-05-05T07:16:54.453Z,2.85
2019-05-05T07:17:33.813Z,3.20
2019-05-05T07:18:11.670Z,2.93
2019-05-05T07:18:49.429Z,2.45
2019-05-05T07:19:27.015Z,2.72
2019-05-05T07:20:05.554Z,3.10
2019-05-05T07:20:44.050Z,3.20
2019-05-05T07:21:23.720Z,2.87
2019-05-05T07:22:03.916Z,3.47
2019-05-05T07:22:41.271Z,3.20
2019-05-05T07:23:18.614Z,2.80
2019-05-05T07:23:56.840Z,2.62
2019-05-05T07:24:34.565Z,2.92
2019-05-05T07:25:13.757Z,2.47
2019-05-05T07:25:51.258Z,2.45
2019-05-05T07:26:29.353Z,2.90
2019-05-05T07:27:06.932Z,2.47
2019-05-05T07:27:46.764Z,2.55
2019-05-05T07:28:24.450Z,2.80
2019-05-05T07:29:04.473Z,2.90
2019-05-05T07:29:43.681Z,3.25
2019-05-05T07:30:24.371Z,2.42
2019-05-05T07:31:04.177Z,2.87
2019-05-05T07:31:44.095Z,2.85
2019-05-05T07:32:21.606Z,3.02
2019-05-05T07:33:04.434Z,2.60
2019-05-05T07:33:41.034Z,2.98
2019-05-05T07:34:18.962Z,2.83
2019-05-05T07:35:34.495Z,2.77
2019-05-05T07:36:29.356Z,2.83
2019-05-05T07:37:07.315Z,3.02
2019-05-05T07:37:45.004Z,2.80
2019-05-05T07:38:24.405Z,2.42
2019-05-05T07:39:03.859Z,2.40
2019-05-05T07:39:41.844Z,2.40
2019-05-05T07:40:19.787Z,3.23
2019-05-05T07:40:59.862Z,2.55
2019-05-05T07:41:40.409Z,2.87
2019-05-05T07:42:17.152Z,3.05
2019-05-05T07:42:54.619Z,2.47
2019-05-05T07:43:37.964Z,2.53
2019-05-05T07:44:27.685Z,2.50
2019-05-05T07:45:00.462Z,2.33
2019-05-05T07:45:37.568Z,2.40
2019-05-05T07:46:15.114Z,2.60
2019-05-05T07:46:54.312Z,2.20
2019-05-05T07:47:34.348Z,2.13
2019-05-05T07:48:13.879Z,2.47
2019-05-05T07:48:54.349Z,2.80
2019-05-05T07:49:33.594Z,2.10
2019-05-05T07:50:25.413Z,2.27
2019-05-05T07:50:59.723Z,2.27
2019-05-05T07:51:30.306Z,2.25
2019-05-05T07:52:14.892Z,2.60
2019-05-05T07:52:54.431Z,1.95
2019-05-05T07:53:33.568Z,2.35
2019-05-05T07:54:10.757Z,1.90
2019-05-05T07:54:48.814Z,2.30
2019-05-05T07:55:26.372Z,2.60
2019-05-05T07:56:03.983Z,2.27
2019-05-05T07:56:44.353Z,1.93
2019-05-05T07:57:23.814Z,1.60
2019-05-05T07:58:01.188Z,2.03
2019-05-05T07:58:39.623Z,1.95
2019-05-05T07:59:16.866Z,1.90
2019-05-05T07:59:54.577Z,2.20
2019-05-05T08:00:34.167Z,2.50
2019-05-05T08:01:11.398Z,2.37
2019-05-05T08:01:49.002Z,2.30
2019-05-05T08:02:30.684Z,2.12
2019-05-05T08:03:08.608Z,1.60
2019-05-05T08:03:53.714Z,1.80
2019-05-05T08:04:34.732Z,1.75
2019-05-05T08:05:14.130Z,1.70
2019-05-05T08:05:54.369Z,1.93
2019-05-05T08:06:33.851Z,1.82
2019-05-05T08:07:10.868Z,1.90
2019-05-05T08:07:48.562Z,1.60
2019-05-05T08:08:26.108Z,1.65
2019-05-05T08:09:04.125Z,1.73
2019-05-05T08:09:41.738Z,1.82
2019-05-05T08:10:20.102Z,1.57
2019-05-05T08:10:57.358Z,1.63
2019-05-05T08:11:35.478Z,1.70
2019-05-05T08:12:13.860Z,1.70
2019-05-05T08:12:54.052Z,1.67
2019-05-05T08:13:31.138Z,1.77
2019-05-05T08:14:09.236Z,1.62
2019-05-05T08:14:46.704Z,1.17
2019-05-05T08:15:24.680Z,1.65
2019-05-05T08:16:04.729Z,1.30
2019-05-05T08:16:58.460Z,1.20
2019-05-05T08:17:59.148Z,1.50
2019-05-05T08:18:49.152Z,1.47
2019-05-05T08:19:36.762Z,1.50
2019-05-05T08:20:19.447Z,1.62
2019-05-05T08:20:58.967Z,1.82
2019-05-05T08:21:36.871Z,1.35
2019-05-05T08:22:15.015Z,1.72
2019-05-05T08:22:53.643Z,1.52
2019-05-05T08:23:39.275Z,1.40
2019-05-05T08:24:33.818Z,2.07
2019-05-05T08:25:39.756Z,1.90
2019-05-05T08:26:20.228Z,2.15
2019-05-05T08:27:24.903Z,2.15
2019-05-05T08:28:18.346Z,2.08
2019-05-05T08:29:21.040Z,2.15
2019-05-05T08:30:05.161Z,2.12
2019-05-05T08:30:47.987Z,2.15
2019-05-05T08:31:44.283Z,1.90
2019-05-05T08:32:25.102Z,1.60
2019-05-05T08:33:04.642Z,1.70
2019-05-05T08:33:44.176Z,1.95
2019-05-05T08:34:21.406Z,2.00
2019-05-05T08:35:00.929Z,1.70
2019-05-05T08:35:38.206Z,1.70
2019-05-05T08:36:16.079Z,2.25
2019-05-05T08:36:54.070Z,2.27
2019-05-05T08:37:34.189Z,1.80
2019-05-05T08:38:11.257Z,2.10
2019-05-05T08:38:48.512Z,2.17
2019-05-05T08:39:26.023Z,1.60
2019-05-05T08:40:06.468Z,1.90
2019-05-05T08:40:43.958Z,2.20
2019-05-05T08:41:21.999Z,1.75
2019-05-05T08:41:59.823Z,2.05
2019-05-05T08:42:37.254Z,1.80
2019-05-05T08:43:14.789Z,1.60
2019-05-05T08:43:54.302Z,2.12
2019-05-05T08:44:34.212Z,2.00
2019-05-05T08:45:11.259Z,2.22
2019-05-05T08:45:49.046Z,2.00
2019-05-05T08:46:26.920Z,2.40
2019-05-05T08:47:04.873Z,2.17
2019-05-05T08:47:43.611Z,2.30
2019-05-05T08:48:21.518Z,1.97
2019-05-05T08:48:59.078Z,1.80
2019-05-05T08:49:36.871Z,2.10
2019-05-05T08:50:16.814Z,2.07
2019-05-05T08:50:54.730Z,2.20
2019-05-05T08:51:33.838Z,2.30
2019-05-05T08:52:11.206Z,2.33
2019-05-05T08:52:48.447Z,1.90
2019-05-05T08:53:26.164Z,2.10
2019-05-05T08:54:04.425Z,1.80
2019-05-05T08:54:41.911Z,1.90
2019-05-05T08:55:19.471Z,1.75
2019-05-05T08:55:57.582Z,1.40
2019-05-05T08:56:35.096Z,1.20
2019-05-05T08:57:14.647Z,1.60
2019-05-05T08:57:53.975Z,1.40
2019-05-05T08:58:34.259Z,1.80
2019-05-05T08:59:11.673Z,1.52
2019-05-05T08:59:50.574Z,1.60
2019-05-05T09:00:28.226Z,1.40
2019-05-05T09:01:05.717Z,1.67
2019-05-05T09:01:44.849Z,1.25
2019-05-05T09:02:23.946Z,1.22